Latest Coastal Weather Observations for Kiama

IDN60701

Issued at 9:02 pm EST Saturday 23 July 2016 (issued every 10 minutes, with the page automatically refreshed every 10 minutes)

About coastal observations | Map of coastal stations | Coastal observations for NSW | Marine services | Other Formats
Station Details ID: 068242 Name: KIAMA (BOMBO HEADLAND) Lat: -34.65 Lon: 150.86 Height: 15.5 m
Data from the previous 72 hours. | See also: Recent months at Kiama
Date/Time
EST
Temp
°C
Wind Pressure Rain since
9am
mm
Weather Cloud Vis
km
Sea
Height
m
Swell
Dir  Spd
kts
Gust
kts
hPa Trend Height
m
Period
s
Dir
23/09:00pm 10.9 SW 9 16 - - 0.0 - - - - - - -
23/08:30pm 11.0 WSW 12 21 - - 0.0 - - - - - - -
23/08:00pm 11.2 WSW 11 19 - - 0.0 - - - - - - -
23/07:30pm 11.6 SW 11 18 - - 0.0 - - - - - - -
23/07:00pm 11.8 SW 6 14 - - 0.0 - - - - - - -
23/06:30pm 11.5 W 9 17 - - 0.0 - - - - - - -
23/06:00pm 12.1 WSW 12 26 - - 0.0 - - - - - - -
23/05:30pm 12.2 W 10 20 - - 0.0 - - - - - - -
23/05:00pm 13.0 W 13 20 - - 0.0 - - - - - - -
23/04:30pm 13.9 W 11 24 - - 0.0 - - - - - - -
23/04:14pm 13.9 WSW 16 28 - - 0.0 - - - - - - -
23/04:00pm 13.8 W 14 24 - - 0.0 - - - - - - -
23/03:30pm 14.1 WSW 11 21 - - 0.0 - - - - - - -
23/03:09pm 14.6 W 15 25 - - 0.0 - - - - - - -
23/03:00pm 14.8 WSW 18 27 - - 0.0 - - - - - - -
23/02:53pm 15.1 W 15 27 - - 0.0 - - - - - - -
23/02:30pm 15.8 WSW 12 19 - - 0.0 - - - - - - -
23/02:16pm 15.7 W 14 25 - - 0.0 - - - - - - -
23/02:00pm 15.6 W 12 21 - - 0.0 - - - - - - -
23/01:30pm 15.5 WNW 14 28 - - 0.0 - - - - - - -
23/01:00pm 15.2 W 17 30 - - 0.0 - - - - - - -
23/12:58pm 15.3 W 18 30 - - 0.0 - - - - - - -
23/12:55pm 15.5 W 18 30 - - 0.0 - - - - - - -
23/12:30pm 15.0 W 20 31 - - 0.0 - - - - - - -
23/12:10pm 15.5 W 15 27 - - 0.0 - - - - - - -
23/12:00pm 15.5 WNW 9 20 - - 0.0 - - - - - - -
23/11:30am 14.9 W 14 24 - - 0.0 - - - - - - -
23/11:00am 15.1 WNW 11 19 - - 0.0 - - - - - - -
23/10:30am 14.7 WNW 13 23 - - 0.0 - - - - - - -
23/10:00am 14.2 WNW 15 25 - - 0.0 - - - - - - -
23/09:58am 14.1 WNW 15 25 - - 0.0 - - - - - - -
23/09:30am 13.8 W 13 26 - - 0.0 - - - - - - -
23/09:00am 13.5 W 9 15 - - 5.4 - - - - - - -
23/08:30am 13.1 W 14 25 - - 5.4 - - - - - - -
23/08:28am 13.1 W 15 25 - - 5.4 - - - - - - -
23/08:00am 12.9 WNW 10 21 - - 5.4 - - - - - - -
23/07:30am 12.6 W 6 15 - - 5.4 - - - - - - -
23/07:00am 12.6 W 13 22 - - 5.4 - - - - - - -
23/06:30am 13.1 WNW 15 29 - - 5.4 - - - - - - -
23/06:11am 13.8 W 17 45 - - 5.4 - - - - - - -
23/06:08am 13.8 W 14 32 - - 5.4 - - - - - - -
23/06:00am 14.0 WNW 12 24 - - 5.4 - - - - - - -
23/05:30am 14.3 W 9 15 - - 5.4 - - - - - - -
23/05:00am 14.5 W 13 22 - - 5.4 - - - - - - -
23/04:35am 14.7 W 16 26 - - 5.4 - - - - - - -
23/04:30am 14.9 W 16 26 - - 5.4 - - - - - - -
23/04:07am 15.1 W 15 36 - - 5.4 - - - - - - -
23/04:00am 14.9 W 14 23 - - 5.4 - - - - - - -
23/03:36am 15.5 W 19 30 - - 5.4 - - - - - - -
23/03:30am 15.8 W 20 29 - - 5.4 - - - - - - -
23/03:00am 17.1 W 21 34 - - 5.4 - - - - - - -
23/02:48am 17.1 W 15 29 - - 5.4 - - - - - - -
23/02:30am 17.1 W 10 20 - - 5.4 - - - - - - -
23/02:00am 17.2 WNW 10 17 - - 5.4 - - - - - - -
23/01:30am 16.7 NW 3 6 - - 5.4 - - - - - - -
23/01:00am 17.2 WNW 6 11 - - 5.4 - - - - - - -
23/12:30am 16.9 W 2 5 - - 5.4 - - - - - - -
23/12:00am 17.0 WNW 3 5 - - 5.4 - - - - - - -
 
Date/Time
EST
Temp
°C
Wind Pressure Rain since
9am
mm
Weather Cloud Vis
km
Sea
Height
m
Swell
Dir  Spd
kts
Gust
kts
hPa Trend Height
m
Period
s
Dir
22/11:30pm 17.1 SSW 2 4 - - 5.4 - - - - - - -
22/11:00pm 17.5 N 3 7 - - 5.4 - - - - - - -
22/10:30pm 17.6 NNW 3 4 - - 5.0 - - - - - - -
22/10:00pm 18.3 WNW 6 10 - - 3.4 - - - - - - -
22/09:30pm 18.1 NNW 8 12 - - 2.4 - - - - - - -
22/09:00pm 17.9 NNW 8 13 - - 2.4 Recent precip. - - - - - -
22/08:30pm 17.7 N 8 13 - - 2.2 - - - - - - -
22/08:00pm 18.8 WNW 4 7 - - 2.0 - - - - - - -
22/07:30pm 20.7 W 4 7 - - 0.4 - - - - - - -
22/07:00pm 22.5 NNW 7 13 - - 0.2 - - - - - - -
22/06:30pm 22.7 NNW 8 11 - - 0.2 - - - - - - -
22/06:00pm 23.4 NNW 12 20 - - 0.2 - - - - - - -
22/05:30pm 23.1 NNW 8 13 - - 0.2 - - - - - - -
22/05:00pm 23.3 NW 9 17 - - 0.2 - - - - - - -
22/04:30pm 23.7 NW 10 20 - - 0.2 - - - - - - -
22/04:04pm 24.2 NNW 15 26 - - 0.2 - - - - - - -
22/04:00pm 24.2 NW 13 23 - - 0.2 - - - - - - -
22/03:31pm 24.8 NW 15 26 - - 0.2 - - - - - - -
22/03:30pm 24.9 NW 14 26 - - 0.2 - - - - - - -
22/03:04pm 25.2 NW 15 27 - - 0.2 - - - - - - -
22/03:00pm 25.6 NW 14 23 - - 0.2 - - - - - - -
22/02:30pm 25.3 NW 14 23 - - 0.2 - - - - - - -
22/02:12pm 25.1 NNW 15 25 - - 0.2 - - - - - - -
22/02:00pm 25.2 NW 14 22 - - 0.2 - - - - - - -
22/01:30pm 25.0 NW 9 19 - - 0.0 - - - - - - -
22/01:00pm 21.6 N 10 15 - - 0.0 - - - - - - -
22/12:30pm 20.7 NNE 7 12 - - 0.0 - - - - - - -
22/12:00pm 19.1 NNE 12 15 - - 0.0 - - - - - - -
22/11:30am 18.3 N 14 18 - - 0.0 - - - - - - -
22/11:00am 17.3 N 15 21 - - 0.0 - - - - - - -
22/10:30am 16.8 N 12 17 - - 0.0 - - - - - - -
22/10:00am 16.4 N 5 8 - - 0.0 - - - - - - -
22/09:30am 16.1 N 5 10 - - 0.0 - - - - - - -
22/09:00am 15.9 NNW 5 8 - - 0.0 - - - - - - -
22/08:30am 15.8 NW 3 6 - - 0.0 - - - - - - -
22/08:00am 16.0 NE 3 6 - - 0.0 - - - - - - -
22/07:30am 16.0 N 5 7 - - 0.0 - - - - - - -
22/07:00am 15.2 NNW 7 11 - - 0.0 - - - - - - -
22/06:30am 14.2 NW 3 5 - - 0.0 - - - - - - -
22/06:00am 14.0 N 4 5 - - 0.0 - - - - - - -
22/05:30am 14.1 W 2 3 - - 0.0 - - - - - - -
22/05:00am 13.8 CALM 0 2 - - 0.0 - - - - - - -
22/04:30am 13.3 WSW 1 2 - - 0.0 - - - - - - -
22/04:00am 12.9 WSW 1 4 - - 0.0 - - - - - - -
22/03:30am 13.3 CALM 0 0 - - 0.0 - - - - - - -
22/03:00am 13.4 NW 2 3 - - 0.0 - - - - - - -
22/02:30am 13.9 NNW 4 4 - - 0.0 - - - - - - -
22/02:00am 14.0 CALM 0 1 - - 0.0 - - - - - - -
22/01:30am 14.5 W 1 3 - - 0.0 - - - - - - -
22/01:00am 15.5 N 3 5 - - 0.0 - - - - - - -
22/12:30am 16.0 N 8 12 - - 0.0 - - - - - - -
22/12:00am 15.8 N 9 12 - - 0.0 - - - - - - -
 
Date/Time
EST
Temp
°C
Wind Pressure Rain since
9am
mm
Weather Cloud Vis
km
Sea
Height
m
Swell
Dir  Spd
kts
Gust
kts
hPa Trend Height
m
Period
s
Dir
21/11:30pm 14.4 N 2 4 - - 0.0 - - - - - - -
21/11:00pm 14.3 N 5 8 - - 0.0 - - - - - - -
21/10:30pm 14.9 N 5 7 - - 0.0 - - - - - - -
21/10:00pm 14.4 NNW 6 9 - - 0.0 - - - - - - -
21/09:30pm 13.8 NNW 4 5 - - 0.0 - - - - - - -
21/09:00pm 14.0 NW 3 5 - - 0.0 - - - - - - -
21/08:30pm 14.5 W 2 4 - - 0.0 - - - - - - -
21/08:00pm 14.7 WNW 5 7 - - 0.0 - - - - - - -
21/07:30pm 14.9 WNW 5 6 - - 0.0 - - - - - - -
21/07:00pm 15.4 NW 3 5 - - 0.0 - - - - - - -
21/06:30pm 16.0 NW 3 5 - - 0.0 - - - - - - -
21/06:00pm 16.4 N 2 4 - - 0.0 - - - - - - -
21/05:30pm 16.5 N 5 7 - - 0.0 - - - - - - -
21/05:00pm 16.4 NNE 5 7 - - 0.0 - - - - - - -
21/04:30pm 16.9 NNE 4 5 - - 0.0 - - - - - - -
21/04:00pm 17.9 ENE 2 3 - - 0.0 - - - - - - -
21/03:30pm 17.6 E 2 3 - - 0.0 - - - - - - -
21/03:00pm 17.7 E 3 4 - - 0.0 - - - - - - -
21/02:30pm 17.2 ESE 3 5 - - 0.0 - - - - - - -
21/02:00pm 16.8 SE 4 5 - - 0.0 - - - - - - -
21/01:30pm 17.2 SSE 4 6 - - 0.0 - - - - - - -
21/01:00pm 16.4 S 5 7 - - 0.0 - - - - - - -
21/12:30pm 16.2 SSE 7 8 - - 0.0 - - - - - - -
21/12:00pm 16.5 S 6 8 - - 0.0 - - - - - - -
21/11:30am 16.5 SSW 8 11 - - 0.0 - - - - - - -
21/11:00am 16.5 S 8 9 - - 0.0 - - - - - - -
21/10:30am 16.1 SSW 8 10 - - 0.0 - - - - - - -
21/10:00am 16.2 SSW 8 11 - - 0.0 - - - - - - -
21/09:30am 16.1 SSW 8 11 - - 0.0 - - - - - - -
21/09:00am 16.1 SSW 8 10 - - 7.4 - - - - - - -
21/08:30am 15.6 SW 5 7 - - 7.4 - - - - - - -
21/08:00am 15.4 SW 8 11 - - 7.4 - - - - - - -
21/07:30am 15.2 SW 7 9 - - 7.4 - - - - - - -
21/07:00am 15.2 SW 5 7 - - 7.4 - - - - - - -
21/06:30am 15.2 SSW 10 12 - - 7.4 - - - - - - -
21/06:00am 15.1 SSW 10 13 - - 7.4 - - - - - - -
21/05:30am 14.9 SW 11 13 - - 7.4 - - - - - - -
21/05:00am 14.9 SSW 11 16 - - 7.4 - - - - - - -
21/04:30am 14.9 SSW 11 14 - - 7.4 - - - - - - -
21/04:00am 14.8 SW 9 13 - - 7.4 - - - - - - -
21/03:30am 14.6 SSW 11 14 - - 7.4 - - - - - - -
21/03:00am 14.6 SSW 13 17 - - 7.4 - - - - - - -
21/02:30am 14.5 SSW 13 19 - - 7.4 - - - - - - -
21/02:00am 14.2 SW 13 17 - - 7.4 - - - - - - -
21/01:30am 14.2 SSW 14 19 - - 7.4 - - - - - - -
21/01:00am 14.4 SW 13 17 - - 7.4 - - - - - - -
21/12:30am 14.4 SSW 14 20 - - 7.4 - - - - - - -
21/12:00am 14.7 SSW 16 22 - - 7.4 - - - - - - -
 
Date/Time
EST
Temp
°C
Wind Pressure Rain since
9am
mm
Weather Cloud Vis
km
Sea
Height
m
Swell
Dir  Spd
kts
Gust
kts
hPa Trend Height
m
Period
s
Dir
20/11:30pm 14.6 SSW 16 22 - - 7.4 - - - - - - -
20/11:00pm 14.7 SSW 18 24 - - 7.4 - - - - - - -
20/10:30pm 14.5 SSW 17 23 - - 7.4 - - - - - - -
20/10:00pm 14.7 SSW 15 23 - - 7.2 - - - - - - -
20/09:30pm 14.6 SSW 19 23 - - 7.2 - - - - - - -

Other Formats:

Comma delimited format used in spreadsheet applications
http://www.bom.gov.au/fwo/IDN60701/IDN60701.95749.axf

JavaScript Object Notation format (JSON) in row-major order
http://www.bom.gov.au/fwo/IDN60701/IDN60701.95749.json